createdAt,value
2019-05-14T00:00:24.390Z,1.90
2019-05-14T00:02:55.159Z,1.60
2019-05-14T00:05:25.896Z,1.60
2019-05-14T00:07:56.325Z,1.65
2019-05-14T00:10:26.839Z,2.22
2019-05-14T00:12:57.658Z,1.90
2019-05-14T00:15:28.242Z,1.60
2019-05-14T00:18:01.056Z,1.40
2019-05-14T00:20:31.572Z,1.47
2019-05-14T00:23:04.952Z,1.57
2019-05-14T00:25:35.630Z,1.80
2019-05-14T00:28:06.274Z,1.98
2019-05-14T00:30:37.178Z,1.57
2019-05-14T00:33:07.729Z,1.55
2019-05-14T00:35:38.142Z,1.70
2019-05-14T00:38:08.752Z,1.62
2019-05-14T00:40:41.808Z,1.95
2019-05-14T00:43:11.920Z,1.92
2019-05-14T00:45:42.434Z,1.27
2019-05-14T00:48:13.064Z,2.47
2019-05-14T00:50:43.393Z,1.55
2019-05-14T00:53:16.296Z,1.45
2019-05-14T00:55:47.045Z,1.23
2019-05-14T00:58:17.435Z,1.47
2019-05-14T01:00:47.874Z,1.72
2019-05-14T01:03:18.271Z,1.70
2019-05-14T01:05:52.414Z,1.70
2019-05-14T01:08:22.898Z,1.87
2019-05-14T01:10:53.887Z,1.30
2019-05-14T01:13:24.739Z,1.70
2019-05-14T01:15:55.053Z,1.37
2019-05-14T01:18:25.515Z,1.55
2019-05-14T01:20:55.927Z,1.60
2019-05-14T01:23:26.374Z,1.60
2019-05-14T01:25:56.768Z,1.87
2019-05-14T01:28:27.545Z,1.60
2019-05-14T01:30:57.967Z,1.70
2019-05-14T01:33:28.743Z,1.47
2019-05-14T01:36:01.803Z,1.70
2019-05-14T01:38:31.714Z,1.70
2019-05-14T01:41:02.196Z,1.60
2019-05-14T01:43:32.665Z,1.82
2019-05-14T01:46:03.084Z,2.00
2019-05-14T01:48:33.847Z,2.37
2019-05-14T01:51:06.668Z,1.90
2019-05-14T01:53:37.078Z,1.70
2019-05-14T01:56:07.538Z,1.70
2019-05-14T01:58:38.017Z,1.90
2019-05-14T02:01:08.754Z,1.80
2019-05-14T02:03:41.146Z,1.75
2019-05-14T02:06:12.017Z,1.60
2019-05-14T02:08:42.613Z,1.95
2019-05-14T02:11:13.170Z,2.10
2019-05-14T02:13:43.851Z,1.92
2019-05-14T02:16:14.421Z,1.90
2019-05-14T02:18:47.920Z,1.50
2019-05-14T02:21:18.835Z,2.02
2019-05-14T02:23:51.403Z,1.75
2019-05-14T02:26:22.616Z,1.75
2019-05-14T02:28:54.982Z,1.98
2019-05-14T02:31:29.044Z,1.87
2019-05-14T02:33:59.184Z,1.60
2019-05-14T02:36:36.061Z,1.60
2019-05-14T02:39:10.200Z,1.50
2019-05-14T02:41:41.697Z,1.92
2019-05-14T02:44:12.409Z,1.50
2019-05-14T02:46:45.680Z,1.47
2019-05-14T02:49:15.384Z,1.92
2019-05-14T02:51:45.843Z,2.65
2019-05-14T02:54:20.088Z,1.80
2019-05-14T02:57:10.127Z,1.90
2019-05-14T02:59:39.368Z,1.85
2019-05-14T03:02:59.898Z,1.80
2019-05-14T03:05:31.052Z,1.95
2019-05-14T03:08:01.791Z,1.80
2019-05-14T03:10:32.746Z,1.67
2019-05-14T03:13:03.381Z,2.20
2019-05-14T03:15:33.773Z,1.70
2019-05-14T03:18:09.056Z,1.80
2019-05-14T03:20:39.231Z,2.00
2019-05-14T03:23:18.153Z,1.87
2019-05-14T03:25:42.425Z,1.65
2019-05-14T03:28:13.211Z,2.22
2019-05-14T03:30:43.890Z,1.90
2019-05-14T03:33:22.152Z,1.87
2019-05-14T03:35:57.937Z,2.20
2019-05-14T03:38:21.798Z,1.95
2019-05-14T03:40:52.246Z,2.47
2019-05-14T03:43:23.222Z,1.87
2019-05-14T03:45:53.960Z,1.90
2019-05-14T03:48:29.529Z,1.92
2019-05-14T03:51:00.205Z,2.05
2019-05-14T03:53:31.609Z,2.62
2019-05-14T03:56:02.336Z,2.50
2019-05-14T03:58:33.087Z,2.20
2019-05-14T04:01:05.383Z,2.08
2019-05-14T04:03:35.875Z,2.37
2019-05-14T04:06:10.083Z,2.80
2019-05-14T04:08:42.517Z,2.25
2019-05-14T04:11:15.749Z,2.60
2019-05-14T04:13:49.917Z,2.25
2019-05-14T04:16:23.930Z,2.37
2019-05-14T04:18:59.204Z,2.08
2019-05-14T04:21:30.111Z,2.17
2019-05-14T04:24:02.007Z,2.52
2019-05-14T04:26:53.147Z,2.30
2019-05-14T04:29:10.150Z,2.00
2019-05-14T04:31:43.866Z,1.87
2019-05-14T04:34:19.261Z,2.87
2019-05-14T04:36:50.247Z,2.33
2019-05-14T04:39:21.432Z,2.55
2019-05-14T04:41:52.299Z,2.60
2019-05-14T04:44:22.700Z,3.15
2019-05-14T04:46:53.430Z,2.30
2019-05-14T04:49:23.832Z,1.80
2019-05-14T04:51:54.651Z,2.17
2019-05-14T04:54:25.643Z,2.30
2019-05-14T04:56:59.659Z,2.35
2019-05-14T04:59:29.982Z,2.33
2019-05-14T05:02:01.069Z,2.17
2019-05-14T05:04:31.581Z,2.10
2019-05-14T05:07:02.155Z,2.30
2019-05-14T05:09:32.788Z,2.05
2019-05-14T05:12:03.237Z,2.45
2019-05-14T05:14:33.855Z,2.52
2019-05-14T05:17:04.987Z,2.20
2019-05-14T05:19:39.075Z,2.25
2019-05-14T05:22:08.242Z,1.72
2019-05-14T05:24:39.103Z,2.20
2019-05-14T05:27:09.629Z,2.35
2019-05-14T05:29:40.125Z,2.30
2019-05-14T05:32:10.823Z,2.02
2019-05-14T05:34:41.319Z,2.35
2019-05-14T05:37:11.734Z,2.12
2019-05-14T05:39:42.332Z,2.30
2019-05-14T05:42:12.731Z,2.25
2019-05-14T05:44:43.181Z,2.60
2019-05-14T05:47:13.908Z,2.15
2019-05-14T05:49:44.400Z,2.35
2019-05-14T05:52:14.856Z,2.25
2019-05-14T05:54:45.299Z,2.80
2019-05-14T05:57:18.570Z,2.25
2019-05-14T05:59:48.639Z,2.42
2019-05-14T06:02:19.459Z,1.87
2019-05-14T06:04:51.758Z,2.55
2019-05-14T06:07:22.509Z,2.35
2019-05-14T06:09:52.974Z,2.12
2019-05-14T06:12:23.398Z,1.92
2019-05-14T06:14:54.532Z,2.42
2019-05-14T06:17:25.198Z,1.90
2019-05-14T06:19:55.655Z,2.35
2019-05-14T06:22:28.034Z,2.10
2019-05-14T06:24:58.822Z,2.35
2019-05-14T06:27:29.805Z,1.87
2019-05-14T06:30:00.352Z,1.80
2019-05-14T06:32:30.761Z,2.00
2019-05-14T06:35:01.231Z,2.22
2019-05-14T06:37:31.661Z,1.95
2019-05-14T06:40:02.472Z,2.55
2019-05-14T06:42:32.949Z,1.67
2019-05-14T06:45:03.412Z,1.98
2019-05-14T06:47:33.844Z,1.98
2019-05-14T06:50:04.320Z,1.47
2019-05-14T06:52:34.843Z,1.62
2019-05-14T06:55:05.550Z,2.40
2019-05-14T06:57:36.020Z,2.55
2019-05-14T07:00:08.314Z,1.95
2019-05-14T07:02:43.753Z,2.33
2019-05-14T07:05:11.108Z,2.10
2019-05-14T07:07:41.796Z,2.10
2019-05-14T07:10:12.630Z,2.22
2019-05-14T07:12:42.999Z,2.10
2019-05-14T07:15:14.347Z,2.77
2019-05-14T07:17:45.006Z,2.00
2019-05-14T07:20:15.469Z,1.85
2019-05-14T07:22:48.324Z,2.67
2019-05-14T07:25:18.680Z,2.60
2019-05-14T07:27:49.147Z,2.45
2019-05-14T07:30:19.839Z,2.10
2019-05-14T07:32:50.247Z,2.08
2019-05-14T07:35:20.792Z,1.60
2019-05-14T07:37:51.289Z,1.67
2019-05-14T07:40:21.968Z,2.65
2019-05-14T07:42:52.402Z,2.50
2019-05-14T07:45:22.812Z,1.90
2019-05-14T07:47:53.223Z,2.87
2019-05-14T07:50:23.784Z,2.30
2019-05-14T07:52:54.281Z,1.95
2019-05-14T07:55:24.716Z,2.08
2019-05-14T07:57:55.358Z,1.35
2019-05-14T08:00:28.400Z,2.10
2019-05-14T08:02:58.568Z,1.45
2019-05-14T08:05:29.030Z,2.37
2019-05-14T08:08:00.426Z,2.22
2019-05-14T08:10:30.827Z,2.15
2019-05-14T08:13:01.313Z,2.42
2019-05-14T08:15:31.782Z,2.10
2019-05-14T08:18:02.686Z,1.90
2019-05-14T08:20:33.208Z,2.35
2019-05-14T08:23:03.724Z,1.77
2019-05-14T08:25:34.499Z,1.15
2019-05-14T08:28:10.414Z,1.72
2019-05-14T08:30:41.015Z,1.87
2019-05-14T08:33:11.575Z,1.87
2019-05-14T08:35:42.104Z,2.05
2019-05-14T08:38:12.504Z,2.05
2019-05-14T08:40:42.949Z,1.62
2019-05-14T08:43:13.413Z,2.27
2019-05-14T08:45:45.482Z,1.42
2019-05-14T08:48:18.758Z,2.10
2019-05-14T08:50:48.944Z,1.87
2019-05-14T08:53:19.400Z,1.40
2019-05-14T08:55:49.906Z,1.57
2019-05-14T08:58:20.561Z,1.30
2019-05-14T09:00:51.384Z,2.00
2019-05-14T09:03:21.950Z,1.70
2019-05-14T09:05:52.399Z,1.80
2019-05-14T09:08:23.135Z,1.52
2019-05-14T09:10:53.648Z,1.25
2019-05-14T09:13:24.451Z,1.55
2019-05-14T09:15:55.207Z,1.60
2019-05-14T09:18:25.812Z,1.40
2019-05-14T09:20:58.225Z,1.22
2019-05-14T09:23:28.913Z,1.45
2019-05-14T09:25:59.629Z,1.40
2019-05-14T09:28:30.432Z,1.65
2019-05-14T09:31:01.082Z,1.37
2019-05-14T09:33:31.590Z,1.20
2019-05-14T09:36:14.948Z,1.40
2019-05-14T09:38:34.587Z,0.85
2019-05-14T09:41:12.114Z,1.00
2019-05-14T09:43:39.297Z,1.20
2019-05-14T09:46:09.999Z,1.12
2019-05-14T09:48:40.445Z,1.42
2019-05-14T09:51:11.001Z,1.52
2019-05-14T09:53:41.523Z,1.42
2019-05-14T09:56:12.219Z,1.12
2019-05-14T09:58:42.717Z,1.62
2019-05-14T10:01:13.691Z,1.57
2019-05-14T10:03:44.549Z,1.60
2019-05-14T10:06:15.112Z,1.30
2019-05-14T10:08:45.634Z,1.00
2019-05-14T10:11:16.116Z,1.50
2019-05-14T10:13:48.380Z,1.40
2019-05-14T10:16:20.855Z,1.15
2019-05-14T10:18:52.983Z,1.22
2019-05-14T10:21:23.723Z,1.42
2019-05-14T10:23:54.204Z,1.50
2019-05-14T10:26:24.623Z,1.50
2019-05-14T10:28:55.545Z,1.60
2019-05-14T10:31:26.026Z,1.30
2019-05-14T10:33:58.720Z,1.62
2019-05-14T10:36:30.030Z,1.30
2019-05-14T10:39:00.741Z,1.37
2019-05-14T10:41:31.523Z,1.37
2019-05-14T10:44:02.390Z,1.30
2019-05-14T10:46:33.223Z,1.20
2019-05-14T10:49:16.671Z,1.50
2019-05-14T10:51:38.721Z,1.52
2019-05-14T10:54:21.039Z,1.30
2019-05-14T10:56:41.066Z,1.30
2019-05-14T10:59:11.657Z,1.32
2019-05-14T11:01:42.105Z,1.65
2019-05-14T11:04:12.573Z,1.65
2019-05-14T11:06:43.227Z,1.47
2019-05-14T11:09:13.826Z,1.47
2019-05-14T11:11:44.306Z,1.50
2019-05-14T11:14:15.040Z,1.72
2019-05-14T11:16:48.396Z,1.60
2019-05-14T11:19:18.831Z,1.40
2019-05-14T11:21:50.143Z,1.42
2019-05-14T11:24:20.652Z,1.50
2019-05-14T11:26:51.129Z,1.05
2019-05-14T11:29:21.642Z,1.20
2019-05-14T11:31:52.122Z,1.72
2019-05-14T11:34:22.643Z,1.25
2019-05-14T11:36:53.171Z,1.35
2019-05-14T11:39:23.638Z,0.95
2019-05-14T11:41:54.111Z,0.82
2019-05-14T11:44:24.909Z,1.00
2019-05-14T11:46:58.105Z,1.32
2019-05-14T11:49:27.544Z,1.92
2019-05-14T11:52:07.243Z,1.32
2019-05-14T11:54:30.528Z,0.90
2019-05-14T11:57:00.915Z,1.62
2019-05-14T11:59:31.440Z,1.30
2019-05-14T12:02:02.423Z,1.70
2019-05-14T12:04:32.845Z,1.50
2019-05-14T12:07:03.504Z,1.67
2019-05-14T12:09:34.435Z,1.22
2019-05-14T12:12:05.570Z,0.95
2019-05-14T12:14:38.051Z,1.30
2019-05-14T12:17:09.385Z,1.00
2019-05-14T12:19:43.584Z,1.05
2019-05-14T12:22:12.912Z,0.98
2019-05-14T12:24:44.062Z,0.90
2019-05-14T12:27:18.979Z,0.90
2019-05-14T12:32:25.807Z,1.20
2019-05-14T12:34:56.241Z,1.20
2019-05-14T12:37:28.856Z,1.10
2019-05-14T12:39:59.141Z,1.42
2019-05-14T12:42:29.689Z,1.60
2019-05-14T12:45:00.180Z,1.07
2019-05-14T12:47:30.758Z,1.17
2019-05-14T12:50:01.525Z,0.90
2019-05-14T12:52:31.930Z,1.27
2019-05-14T12:55:03.038Z,1.22
2019-05-14T12:57:34.134Z,1.30
2019-05-14T13:00:04.799Z,0.90
2019-05-14T13:02:35.348Z,1.00
2019-05-14T13:05:08.435Z,1.50
2019-05-14T13:07:41.555Z,1.10
2019-05-14T13:10:11.471Z,1.50
2019-05-14T13:12:41.930Z,1.25
2019-05-14T13:15:12.810Z,1.10
2019-05-14T13:17:43.886Z,0.75
2019-05-14T13:20:14.929Z,1.10
2019-05-14T13:22:46.521Z,0.93
2019-05-14T13:25:19.619Z,1.00
2019-05-14T13:27:50.153Z,1.10
2019-05-14T13:30:20.859Z,1.20
2019-05-14T13:32:51.703Z,0.80
2019-05-14T13:35:22.126Z,1.00
2019-05-14T13:37:52.837Z,0.82
2019-05-14T13:40:23.832Z,1.00
2019-05-14T13:42:54.327Z,0.98
2019-05-14T13:45:24.806Z,1.00
2019-05-14T13:47:55.563Z,0.93
2019-05-14T13:50:29.253Z,0.72
2019-05-14T13:53:04.157Z,0.90
2019-05-14T13:55:30.975Z,0.93
2019-05-14T13:58:01.505Z,0.85
2019-05-14T14:00:32.322Z,0.80
2019-05-14T14:03:02.785Z,1.10
2019-05-14T14:05:33.505Z,0.80
2019-05-14T14:08:04.248Z,0.98
2019-05-14T14:10:36.789Z,0.90
2019-05-14T14:13:11.056Z,1.10
2019-05-14T14:15:39.640Z,0.50
2019-05-14T14:18:10.198Z,0.90
2019-05-14T14:20:40.643Z,1.05
2019-05-14T14:23:22.124Z,0.90
2019-05-14T14:25:43.665Z,0.90
2019-05-14T14:28:14.430Z,0.78
2019-05-14T14:30:44.828Z,0.80
2019-05-14T14:33:15.316Z,1.17
2019-05-14T14:35:48.364Z,0.80
2019-05-14T14:38:20.083Z,0.90
2019-05-14T14:40:50.773Z,1.05
2019-05-14T14:43:21.221Z,0.93
2019-05-14T14:45:51.772Z,1.05
2019-05-14T14:48:22.609Z,1.07
2019-05-14T14:50:53.516Z,0.60
2019-05-14T14:53:41.530Z,0.70
2019-05-14T14:55:56.117Z,1.00
2019-05-14T14:58:28.671Z,1.02
2019-05-14T15:00:59.744Z,0.70
2019-05-14T15:03:30.396Z,1.15
2019-05-14T15:06:00.942Z,0.93
2019-05-14T15:08:31.512Z,0.90
2019-05-14T15:11:02.286Z,0.72
2019-05-14T15:13:32.710Z,0.70
2019-05-14T15:16:03.194Z,0.90
2019-05-14T15:18:33.843Z,1.12
2019-05-14T15:21:04.276Z,0.90
2019-05-14T15:23:34.734Z,0.90
2019-05-14T15:26:12.374Z,1.07
2019-05-14T15:28:42.926Z,0.80
2019-05-14T15:31:13.684Z,0.82
2019-05-14T15:33:44.125Z,0.85
2019-05-14T15:36:14.961Z,0.90
2019-05-14T15:38:45.432Z,0.68
2019-05-14T15:41:15.914Z,0.95
2019-05-14T15:43:46.317Z,0.80
2019-05-14T15:46:18.574Z,1.07
2019-05-14T15:48:49.052Z,0.72
2019-05-14T15:51:20.312Z,0.72
2019-05-14T15:54:05.433Z,1.37
2019-05-14T15:56:23.075Z,0.72
2019-05-14T15:58:53.662Z,0.90
2019-05-14T16:01:24.740Z,0.60
2019-05-14T16:04:00.978Z,0.95
2019-05-14T16:06:31.895Z,1.10
2019-05-14T16:09:02.903Z,0.93
2019-05-14T16:11:33.467Z,0.90
2019-05-14T16:14:04.078Z,0.85
2019-05-14T16:16:35.221Z,0.68
2019-05-14T16:19:08.086Z,0.90
2019-05-14T16:21:38.723Z,1.07
2019-05-14T16:24:09.523Z,0.95
2019-05-14T16:26:40.059Z,0.82
2019-05-14T16:29:10.934Z,0.70
2019-05-14T16:31:43.706Z,0.60
2019-05-14T16:34:14.296Z,1.05
2019-05-14T16:36:44.827Z,0.68
2019-05-14T16:39:15.559Z,0.82
2019-05-14T16:41:48.852Z,0.80
2019-05-14T16:44:19.017Z,1.10
2019-05-14T16:46:49.763Z,0.82
2019-05-14T16:49:22.546Z,0.70
2019-05-14T16:51:53.002Z,1.00
2019-05-14T16:54:23.509Z,1.15
2019-05-14T16:56:53.990Z,0.80
2019-05-14T16:59:24.789Z,1.10
2019-05-14T17:01:55.278Z,1.00
2019-05-14T17:04:26.314Z,0.90
2019-05-14T17:06:58.898Z,1.10
2019-05-14T17:09:29.525Z,0.70
2019-05-14T17:11:59.876Z,0.85
2019-05-14T19:52:22.873Z,1.30
2019-05-14T19:54:52.278Z,1.35
2019-05-14T19:57:21.842Z,1.45
2019-05-14T19:59:51.070Z,1.50
2019-05-14T20:02:20.522Z,1.67
2019-05-14T20:04:51.722Z,1.80
2019-05-14T20:07:21.418Z,1.67
2019-05-14T20:09:51.520Z,1.25
2019-05-14T20:12:30.860Z,1.70
2019-05-14T20:15:02.563Z,1.87
2019-05-14T20:17:34.915Z,1.55
2019-05-14T20:20:08.835Z,1.77
2019-05-14T20:25:13.578Z,1.40
2019-05-14T20:30:18.767Z,1.30
2019-05-14T20:32:49.598Z,1.67
2019-05-14T20:35:31.675Z,2.05
2019-05-14T20:37:52.247Z,1.72
2019-05-14T20:40:21.831Z,1.42
2019-05-14T20:42:51.034Z,1.45
2019-05-14T20:45:20.461Z,1.55
2019-05-14T20:47:49.946Z,2.10
2019-05-14T20:50:19.212Z,1.60
2019-05-14T20:52:48.502Z,1.82
2019-05-14T20:55:19.066Z,1.62
2019-05-14T20:57:48.909Z,1.77
2019-05-14T21:00:19.271Z,1.80
2019-05-14T21:02:48.638Z,2.08
2019-05-14T21:05:18.829Z,1.80
2019-05-14T21:07:49.254Z,1.82
2019-05-14T21:10:19.182Z,2.12
2019-05-14T21:12:48.880Z,2.10
2019-05-14T21:15:18.349Z,2.08
2019-05-14T21:17:50.212Z,1.87
2019-05-14T21:20:18.618Z,1.92
2019-05-14T21:22:48.542Z,1.87
2019-05-14T21:25:18.415Z,1.95
2019-05-14T21:27:51.770Z,1.60
2019-05-14T21:30:21.997Z,1.47
2019-05-14T21:32:51.286Z,2.00
2019-05-14T21:35:21.190Z,1.70
2019-05-14T21:37:51.517Z,1.70
2019-05-14T21:40:21.707Z,1.80
2019-05-14T21:42:51.502Z,1.85
2019-05-14T21:45:20.870Z,1.77
2019-05-14T21:47:50.090Z,1.62
2019-05-14T21:50:20.076Z,1.62
2019-05-14T21:52:49.688Z,1.87
2019-05-14T21:55:19.831Z,1.77
2019-05-14T21:57:56.365Z,1.60
2019-05-14T22:00:29.514Z,1.52
2019-05-14T22:02:59.241Z,1.98
2019-05-14T22:05:28.796Z,1.82
2019-05-14T22:07:58.126Z,1.70
2019-05-14T22:10:28.821Z,1.55
2019-05-14T22:12:58.460Z,1.72
2019-05-14T22:15:29.193Z,1.80
2019-05-14T22:17:58.912Z,1.57
2019-05-14T22:20:28.970Z,1.50
2019-05-14T22:22:59.052Z,1.67
2019-05-14T22:25:28.763Z,1.60
2019-05-14T22:28:11.142Z,1.70
2019-05-14T22:30:29.547Z,1.72
2019-05-14T22:33:00.706Z,1.98
2019-05-14T22:35:31.199Z,1.67
2019-05-14T22:38:00.805Z,2.00
2019-05-14T22:40:30.437Z,1.72
2019-05-14T22:43:00.349Z,1.70
2019-05-14T22:45:30.012Z,1.77
2019-05-14T22:47:59.369Z,2.00
2019-05-14T22:50:29.416Z,2.00
2019-05-14T22:52:58.894Z,1.52
2019-05-14T22:55:29.027Z,1.80
2019-05-14T22:57:59.529Z,1.80
2019-05-14T23:00:29.170Z,1.95
2019-05-14T23:03:01.429Z,1.67
2019-05-14T23:05:31.178Z,1.90
2019-05-14T23:08:00.624Z,1.82
2019-05-14T23:10:30.987Z,1.22
2019-05-14T23:13:00.322Z,2.02
2019-05-14T23:15:29.597Z,1.57
2019-05-14T23:17:59.048Z,1.57
2019-05-14T23:20:29.079Z,1.45
2019-05-14T23:22:58.995Z,2.15
2019-05-14T23:25:29.249Z,2.22
2019-05-14T23:27:59.034Z,1.80
2019-05-14T23:30:34.761Z,1.95
2019-05-14T23:33:04.130Z,1.70
2019-05-14T23:35:33.286Z,1.87
2019-05-14T23:38:03.697Z,1.80
2019-05-14T23:40:34.751Z,1.60
2019-05-14T23:43:04.057Z,2.20
2019-05-14T23:45:33.469Z,2.00
2019-05-14T23:48:03.096Z,2.20
2019-05-14T23:50:32.289Z,2.05
2019-05-14T23:53:01.577Z,1.82
2019-05-14T23:55:30.966Z,2.00
2019-05-14T23:58:00.137Z,2.08
